首页
METAR-TAF:

METAR-TAF

机场 :

波纳佩国际机场

波纳佩, 密克罗尼西亚群岛

纬度: 06-59N, 经度: 158-12E, 海拔: 2米

当前天气观测

该预报发布于6小时和52分钟前的03:50 UTC
风速10节,风向
温度 31°C
湿度 71%
气压 1008 hPa
能見度: 24.1公里
散云层高于1800英尺, 塔状积云.
多云层高于30000英尺

METAR: PTPN 280350Z 08010KT 15SM SCT018TCU BKN300 31/25 A2978 RMK TCU OHD LAST

时间: 21:42 (10:42 UTC)

预报

该预报发布于5小时和11分钟前的05:31 UTC
预报有效从28日的 06点(UTC)到 29日的 06点(UTC)
风速13节,风向东转东北
能見度: 10公里
散云层高于1600英尺
多云层高于14000英尺
附近有阵雨
短暂存在
从 28日的 06点(UTC)到 28日的 08点(UTC)
能見度: 8.0公里
多云层高于1600英尺
阴天层高于8000英尺
阵雨

TAF: PTPN 280531Z 2806/2906 07013KT P6SM VCSH SCT016 BKN140 TEMPO 2806/2808 5SM SHRA BKN016 OVC080

超过4000个机场的气象观测和天气预报(METAR&TAF报告)。

可查询的气象台以黄色和红色小点在地图上表示。

将鼠标移到小点上方,可查看气象台名称。

然后点击查看天气观测和预报。

如需切换地图:点击带黑十字的绿色按钮放大地图;点击带横线的绿色按钮缩小地图;或者点击绿色箭头查看邻近地区的地图。


METAR-TAF: